createdAt,value
2023-03-07T00:02:19.126Z,81.02
2023-03-07T00:06:20.955Z,81.08
2023-03-07T00:10:22.360Z,80.41
2023-03-07T00:14:23.814Z,80.37
2023-03-07T00:18:26.705Z,80.02
2023-03-07T00:22:28.165Z,80.86
2023-03-07T00:26:29.688Z,80.40
2023-03-07T00:30:31.210Z,80.27
2023-03-07T00:34:34.387Z,80.12
2023-03-07T00:38:36.258Z,80.01
2023-03-07T00:42:37.829Z,79.98
2023-03-07T00:46:39.290Z,80.09
2023-03-07T00:50:42.181Z,79.78
2023-03-07T00:54:43.647Z,79.73
2023-03-07T00:58:45.649Z,79.69
2023-03-07T01:02:47.136Z,79.81
2023-03-07T01:06:49.898Z,79.69
2023-03-07T01:10:51.367Z,80.02
2023-03-07T01:14:52.860Z,79.94
2023-03-07T01:18:55.162Z,80.02
2023-03-07T01:23:01.700Z,81.00
2023-03-07T01:27:03.647Z,80.84
2023-03-07T01:31:05.318Z,81.37
2023-03-07T01:35:07.743Z,80.87
2023-03-07T01:39:13.386Z,81.75
2023-03-07T01:43:26.990Z,82.10
2023-03-07T01:47:28.799Z,82.17
2023-03-07T01:51:30.991Z,82.98
2023-03-07T01:55:36.117Z,82.57
2023-03-07T01:59:42.419Z,83.03
2023-03-07T02:03:48.702Z,83.84
2023-03-07T02:07:52.770Z,83.55
2023-03-07T02:11:55.923Z,83.76
2023-03-07T02:15:59.808Z,83.32
2023-03-07T02:20:13.816Z,83.01
2023-03-07T02:24:26.224Z,82.63
2023-03-07T02:28:28.935Z,82.69
2023-03-07T02:32:30.586Z,81.82
2023-03-07T02:36:34.773Z,81.87
2023-03-07T02:40:36.589Z,81.84
2023-03-07T02:44:39.687Z,81.14
2023-03-07T02:48:41.347Z,82.06
2023-03-07T02:52:42.940Z,82.56
2023-03-07T02:56:45.343Z,82.31
2023-03-07T03:00:48.094Z,82.05
2023-03-07T03:04:49.753Z,82.03
2023-03-07T03:08:51.338Z,81.60
2023-03-07T03:12:52.791Z,81.55
2023-03-07T03:16:56.587Z,81.31
2023-03-07T03:20:58.202Z,81.42
2023-03-07T03:24:59.608Z,81.33
2023-03-07T03:29:01.694Z,82.27
2023-03-07T03:33:04.638Z,82.44
2023-03-07T03:37:06.089Z,82.18
2023-03-07T03:41:12.886Z,83.04
2023-03-07T03:45:14.482Z,82.67
2023-03-07T03:49:17.436Z,82.57
2023-03-07T03:53:18.794Z,82.73
2023-03-07T03:57:20.260Z,82.58
2023-03-07T04:01:24.935Z,83.11
2023-03-07T04:05:33.206Z,83.13
2023-03-07T04:09:34.790Z,82.57
2023-03-07T04:13:36.926Z,82.85
2023-03-07T04:17:38.598Z,81.99
2023-03-07T04:21:41.673Z,83.27
2023-03-07T04:25:47.604Z,83.13
2023-03-07T04:29:48.988Z,83.35
2023-03-07T04:33:51.136Z,83.15
2023-03-07T04:37:54.119Z,83.29
2023-03-07T04:41:55.736Z,83.52
2023-03-07T04:45:57.199Z,84.43
2023-03-07T04:49:58.842Z,84.43
2023-03-07T04:54:01.935Z,85.09
2023-03-07T04:58:03.414Z,84.85
2023-03-07T05:02:05.921Z,85.37
2023-03-07T05:06:10.465Z,84.35
2023-03-07T05:10:13.449Z,85.92
2023-03-07T05:14:14.920Z,85.68
2023-03-07T05:18:16.365Z,85.90
2023-03-07T05:22:17.828Z,85.91
2023-03-07T05:26:20.617Z,86.38
2023-03-07T05:30:22.067Z,86.92
2023-03-07T05:34:23.459Z,86.66
2023-03-07T05:38:24.824Z,86.14
2023-03-07T05:42:27.596Z,86.04
2023-03-07T05:46:29.054Z,85.83
2023-03-07T05:50:30.633Z,86.32
2023-03-07T05:54:32.123Z,86.00
2023-03-07T05:58:34.851Z,86.18
2023-03-07T06:02:36.292Z,86.03
2023-03-07T06:06:37.809Z,85.32
2023-03-07T06:10:39.239Z,85.11
2023-03-07T06:19:11.565Z,85.35
2023-03-07T06:23:13.451Z,85.37
2023-03-07T06:27:14.888Z,84.82
2023-03-07T06:31:19.054Z,85.28
2023-03-07T06:35:20.847Z,85.13
2023-03-07T06:39:22.447Z,85.20
2023-03-07T06:43:23.940Z,84.59
2023-03-07T06:47:26.922Z,84.25
2023-03-07T06:51:28.371Z,82.89
2023-03-07T06:55:30.327Z,82.56
2023-03-07T06:59:31.697Z,82.89
2023-03-07T07:03:34.426Z,83.10
2023-03-07T07:07:35.899Z,83.17
2023-03-07T07:11:37.531Z,82.17
2023-03-07T07:15:38.983Z,81.69
2023-03-07T07:19:41.778Z,81.81
2023-03-07T07:23:43.246Z,81.30
2023-03-07T07:27:44.935Z,80.44
2023-03-07T07:31:46.459Z,80.70
2023-03-07T07:35:49.309Z,78.84
2023-03-07T07:39:51.288Z,79.28
2023-03-07T07:43:53.241Z,78.47
2023-03-07T07:47:54.715Z,78.27
2023-03-07T07:51:57.490Z,78.74
2023-03-07T07:55:59.159Z,78.80
2023-03-07T08:00:00.597Z,78.33
2023-03-07T08:04:02.020Z,78.99
2023-03-07T08:08:04.976Z,79.06
2023-03-07T08:12:07.491Z,79.74
2023-03-07T08:16:10.602Z,78.71
2023-03-07T08:20:12.508Z,79.08
2023-03-07T08:24:15.567Z,78.44
2023-03-07T08:28:17.082Z,77.89
2023-03-07T08:32:18.504Z,77.25
2023-03-07T08:36:20.131Z,77.46
2023-03-07T08:40:23.748Z,76.31
2023-03-07T08:44:25.276Z,76.04
2023-03-07T08:48:27.290Z,76.83
2023-03-07T08:52:28.736Z,75.03
2023-03-07T08:56:31.496Z,74.71
2023-03-07T09:00:33.164Z,75.16
2023-03-07T09:04:34.655Z,75.27
2023-03-07T09:08:36.091Z,75.25
2023-03-07T09:12:38.865Z,73.97
2023-03-07T09:16:40.669Z,74.13
2023-03-07T09:20:42.202Z,74.24
2023-03-07T09:24:43.648Z,74.50
2023-03-07T09:28:46.674Z,75.72
2023-03-07T09:32:49.364Z,74.90
2023-03-07T09:36:50.988Z,75.05
2023-03-07T09:40:52.410Z,74.29
2023-03-07T09:45:11.201Z,74.05
2023-03-07T09:49:19.346Z,73.44
2023-03-07T09:53:31.069Z,74.63
2023-03-07T09:57:34.483Z,76.05
2023-03-07T10:01:39.297Z,76.50
2023-03-07T10:05:45.081Z,76.64
2023-03-07T10:09:46.734Z,75.96
2023-03-07T10:14:01.011Z,74.85
2023-03-07T10:18:16.492Z,76.42
2023-03-07T10:22:27.036Z,76.30
2023-03-07T10:26:32.295Z,76.77
2023-03-07T10:30:33.708Z,77.92
2023-03-07T10:34:38.515Z,77.46
2023-03-07T10:38:47.566Z,78.08
2023-03-07T10:42:49.173Z,77.93
2023-03-07T10:46:57.453Z,78.89
2023-03-07T10:51:12.411Z,78.08
2023-03-07T10:55:31.502Z,78.76
2023-03-07T10:59:33.564Z,79.10
2023-03-07T11:03:52.213Z,78.18
2023-03-07T11:07:55.973Z,79.56
2023-03-07T11:11:59.379Z,79.91
2023-03-07T11:16:20.017Z,80.17
2023-03-07T11:20:23.534Z,80.51
2023-03-07T11:24:28.077Z,81.56
2023-03-07T11:28:31.670Z,79.69
2023-03-07T11:32:35.870Z,79.15
2023-03-07T11:36:40.041Z,80.10
2023-03-07T11:40:51.119Z,80.71
2023-03-07T11:44:54.450Z,81.12
2023-03-07T11:49:05.363Z,80.06
2023-03-07T11:53:42.823Z,81.51
2023-03-07T11:58:00.200Z,81.15
2023-03-07T12:02:06.328Z,80.27
2023-03-07T12:06:28.729Z,80.29
2023-03-07T12:10:44.086Z,81.23
2023-03-07T12:14:59.186Z,80.37
2023-03-07T12:19:25.941Z,81.99
2023-03-07T12:23:33.278Z,81.37
2023-03-07T12:27:39.457Z,82.42
2023-03-07T12:31:45.811Z,81.54
2023-03-07T12:35:52.058Z,82.10
2023-03-07T12:39:58.678Z,85.13
2023-03-07T12:44:05.214Z,87.00
2023-03-07T12:48:18.985Z,87.68
2023-03-07T12:52:29.555Z,87.60
2023-03-07T12:56:38.901Z,88.70
2023-03-07T13:00:45.900Z,89.25
2023-03-07T13:04:48.766Z,88.99
2023-03-07T13:08:53.209Z,89.22
2023-03-07T13:12:54.698Z,88.58
2023-03-07T13:16:56.183Z,89.63
2023-03-07T13:21:30.137Z,89.75
2023-03-07T13:25:58.988Z,89.70
2023-03-07T13:30:19.393Z,89.94
2023-03-07T13:34:43.476Z,89.25
2023-03-07T13:38:46.388Z,89.17
2023-03-07T13:42:48.838Z,88.62
2023-03-07T13:46:53.490Z,88.74
2023-03-07T13:51:07.847Z,89.27
2023-03-07T13:55:38.480Z,88.22
2023-03-07T13:59:40.349Z,88.49
2023-03-07T14:03:46.812Z,88.44
2023-03-07T14:07:50.042Z,88.92
2023-03-07T14:12:01.383Z,88.62
2023-03-07T14:16:23.751Z,87.90
2023-03-07T14:20:35.021Z,88.02
2023-03-07T14:24:52.405Z,88.51
2023-03-07T14:29:00.670Z,86.74
2023-03-07T14:33:02.309Z,86.22
2023-03-07T14:37:07.463Z,85.82
2023-03-07T14:41:24.176Z,85.19
2023-03-07T14:45:39.324Z,85.71
2023-03-07T14:49:48.880Z,85.73
2023-03-07T14:53:50.710Z,85.47
2023-03-07T14:57:54.931Z,86.66
2023-03-07T15:01:58.075Z,86.51
2023-03-07T15:06:01.612Z,86.97
2023-03-07T15:10:05.523Z,87.09
2023-03-07T15:14:13.166Z,87.29
2023-03-07T15:18:20.852Z,86.79
2023-03-07T15:22:26.389Z,87.48
2023-03-07T15:26:28.003Z,87.95
2023-03-07T15:30:32.294Z,87.53
2023-03-07T15:34:37.424Z,87.90
2023-03-07T15:38:39.694Z,87.46
2023-03-07T15:42:48.993Z,87.50
2023-03-07T15:46:53.377Z,87.60
2023-03-07T15:50:58.982Z,87.85
2023-03-07T15:55:02.870Z,87.76
2023-03-07T15:59:07.750Z,87.53
2023-03-07T16:03:30.521Z,87.95
2023-03-07T16:07:33.504Z,88.32
2023-03-07T16:11:37.706Z,87.82
2023-03-07T16:15:40.247Z,88.42
2023-03-07T16:19:42.519Z,88.27
2023-03-07T16:23:46.563Z,88.21
2023-03-07T16:27:51.991Z,88.60
2023-03-07T16:31:53.621Z,88.56
2023-03-07T16:35:55.143Z,88.74
2023-03-07T16:39:57.909Z,88.12
2023-03-07T16:43:59.382Z,89.04
2023-03-07T16:48:01.765Z,88.83
2023-03-07T16:52:06.492Z,89.00
2023-03-07T16:56:15.235Z,88.77
2023-03-07T17:00:22.198Z,88.83
2023-03-07T17:04:23.632Z,88.91
2023-03-07T17:08:25.094Z,89.42
2023-03-07T17:12:28.154Z,89.13
2023-03-07T17:16:29.967Z,88.91
2023-03-07T17:20:31.536Z,89.32
2023-03-07T17:24:33.083Z,89.20
2023-03-07T17:28:36.325Z,88.87
2023-03-07T17:32:38.060Z,90.13
2023-03-07T17:36:39.549Z,89.58
2023-03-07T17:40:41.854Z,89.45
2023-03-07T17:44:44.817Z,90.11
2023-03-07T17:48:46.557Z,90.12
2023-03-07T17:52:48.307Z,90.40
2023-03-07T17:56:50.109Z,89.89
2023-03-07T18:00:53.343Z,90.30
2023-03-07T18:04:54.899Z,90.46
2023-03-07T18:08:56.684Z,90.20
2023-03-07T18:12:58.239Z,90.51
2023-03-07T18:17:01.844Z,90.81
2023-03-07T18:21:06.576Z,90.73
2023-03-07T18:25:13.575Z,90.84
2023-03-07T18:29:15.916Z,90.41
2023-03-07T18:33:26.143Z,90.75
2023-03-07T18:37:40.497Z,90.61
2023-03-07T18:41:42.223Z,90.86
2023-03-07T18:45:44.657Z,90.93
2023-03-07T18:49:49.683Z,90.62
2023-03-07T18:53:51.458Z,90.57
2023-03-07T18:57:53.669Z,90.79
2023-03-07T19:01:55.570Z,90.57
2023-03-07T19:05:59.923Z,90.64
2023-03-07T19:10:01.603Z,90.90
2023-03-07T19:14:03.820Z,91.48
2023-03-07T19:22:38.315Z,91.57
2023-03-07T19:26:40.174Z,92.21
2023-03-07T19:30:44.239Z,92.30
2023-03-07T19:34:48.842Z,92.65
2023-03-07T19:38:53.814Z,92.07
2023-03-07T19:42:55.436Z,91.96
2023-03-07T19:46:57.132Z,92.13
2023-03-07T19:50:59.425Z,91.68
2023-03-07T19:55:02.918Z,91.93
2023-03-07T19:59:06.260Z,91.50
2023-03-07T20:03:09.601Z,91.89
2023-03-07T20:07:11.263Z,91.73
2023-03-07T20:11:16.314Z,91.62
2023-03-07T20:15:20.193Z,91.89
2023-03-07T20:19:21.772Z,90.93
2023-03-07T20:23:23.511Z,91.29
2023-03-07T20:27:26.710Z,91.56
2023-03-07T20:31:29.340Z,92.17
2023-03-07T20:35:31.098Z,91.93
2023-03-07T20:39:32.845Z,91.96
2023-03-07T20:43:36.034Z,91.50
2023-03-07T20:47:37.734Z,92.10
2023-03-07T20:51:40.127Z,91.88
2023-03-07T20:55:41.834Z,91.22
2023-03-07T20:59:44.943Z,91.47
2023-03-07T21:03:51.626Z,91.08
2023-03-07T21:07:53.307Z,91.10
2023-03-07T21:11:55.746Z,90.97
2023-03-07T21:16:00.663Z,91.03
2023-03-07T21:20:02.608Z,91.46
2023-03-07T21:24:04.909Z,91.40
2023-03-07T21:28:06.785Z,91.59
2023-03-07T21:32:09.991Z,91.72
2023-03-07T21:36:14.390Z,90.91
2023-03-07T21:40:16.564Z,91.68
2023-03-07T21:44:18.327Z,91.53
2023-03-07T21:48:21.768Z,91.83
2023-03-07T21:52:23.427Z,91.92
2023-03-07T21:56:25.463Z,92.19
2023-03-07T22:00:27.198Z,92.44
2023-03-07T22:04:30.318Z,92.95
2023-03-07T22:08:32.173Z,92.73
2023-03-07T22:12:34.262Z,93.03
2023-03-07T22:16:35.802Z,92.56
2023-03-07T22:20:39.484Z,92.72
2023-03-07T22:24:41.126Z,92.83
2023-03-07T22:28:42.882Z,92.70
2023-03-07T22:32:44.809Z,92.47
2023-03-07T22:36:49.972Z,92.90
2023-03-07T22:40:51.566Z,92.73
2023-03-07T22:44:54.563Z,92.52
2023-03-07T22:48:56.772Z,91.98
2023-03-07T22:52:59.860Z,92.29
2023-03-07T22:57:01.342Z,92.00
2023-03-07T23:01:09.912Z,92.33
2023-03-07T23:05:11.512Z,92.35
2023-03-07T23:09:15.048Z,92.53
2023-03-07T23:13:17.280Z,92.14
2023-03-07T23:17:19.048Z,92.62
2023-03-07T23:21:22.333Z,92.88
2023-03-07T23:25:25.354Z,91.99
2023-03-07T23:29:27.075Z,91.55
2023-03-07T23:33:28.711Z,91.93
2023-03-07T23:37:30.347Z,92.04
2023-03-07T23:41:33.467Z,91.66
2023-03-07T23:45:34.983Z,91.90
2023-03-07T23:49:36.657Z,91.96
2023-03-07T23:53:38.427Z,91.79
2023-03-07T23:57:41.956Z,92.42
